Time;durP1;ratioP1;P1;durP2;ratioP2;P2;SDS_P1;SDS_P2;PMS_P1;PMS_P2;Temp;Humidity;BMP_temperature;BMP_pressure;BME280_temperature;BME280_humidity;BME280_pressure;Samples;Min_cycle;Max_cycle;Signal;HPM_P1;HPM_P2
2022/11/10 00:00:19;;;;;;;31.17;11.83;;;12.40;99.90;;;;;;5074440;28;20493;-61
2022/11/10 00:02:46;;;;;;;28.27;10.00;;;;;;;;;;5067854;28;20883;-61
2022/11/10 00:05:14;;;;;;;29.57;10.93;;;12.40;99.90;;;;;;5077676;28;20475;-61
2022/11/10 00:07:42;;;;;;;29.63;9.90;;;;;;;;;;5066056;28;20470;-61
2022/11/10 00:10:09;;;;;;;22.83;9.23;;;;;;;;;;5077391;28;20557;-61
2022/11/10 00:12:38;;;;;;;39.53;19.50;;;12.40;99.90;;;;;;5054751;28;20478;-61
2022/11/10 00:17:50;;;;;;;41.27;12.23;;;;;;;;;;5061544;28;20473;-60
2022/11/10 00:20:17;;;;;;;61.30;13.73;;;;;;;;;;5071171;28;20497;-61
2022/11/10 00:22:44;;;;;;;59.53;13.77;;;;;;;;;;5065719;28;20470;-61
2022/11/10 00:25:12;;;;;;;45.17;11.67;;;;;;;;;;5071434;28;20477;-61
2022/11/10 00:27:40;;;;;;;62.50;17.13;;;;;;;;;;5069783;28;20561;-61
2022/11/10 00:30:08;;;;;;;35.10;12.50;;;12.30;99.90;;;;;;5068242;28;20983;-61
2022/11/10 00:32:34;;;;;;;87.97;23.13;;;12.20;99.90;;;;;;5060087;28;20492;-61
2022/11/10 00:35:01;;;;;;;42.47;14.70;;;;;;;;;;5078478;28;20491;-61
2022/11/10 00:37:31;;;;;;;71.13;19.57;;;12.30;99.90;;;;;;5069756;28;20482;-61
2022/11/10 00:39:59;;;;;;;47.80;11.17;;;;;;;;;;5062228;28;21013;-61
2022/11/10 00:42:25;;;;;;;61.93;17.97;;;12.20;99.90;;;;;;5081369;28;20475;-61
2022/11/10 00:44:54;;;;;;;44.80;14.00;;;12.30;99.90;;;;;;5065277;28;21121;-61
2022/11/10 00:47:21;;;;;;;61.70;16.10;;;12.30;99.90;;;;;;5050225;28;21385;-60
2022/11/10 00:49:48;;;;;;;30.13;12.20;;;;;;;;;;5075139;28;20825;-61
2022/11/10 00:52:15;;;;;;;53.17;13.93;;;;;;;;;;5075115;28;20829;-61
2022/11/10 00:54:42;;;;;;;42.50;15.67;;;;;;;;;;5065283;28;20717;-61
2022/11/10 00:57:08;;;;;;;42.00;15.47;;;12.40;99.90;;;;;;5065644;28;20501;-61
2022/11/10 00:59:35;;;;;;;65.80;20.03;;;12.30;99.90;;;;;;5069236;28;20485;-60
2022/11/10 01:02:03;;;;;;;48.00;14.23;;;;;;;;;;5067231;28;20478;-61
2022/11/10 01:04:30;;;;;;;98.73;23.03;;;12.30;99.90;;;;;;5066161;28;20481;-61
2022/11/10 01:06:57;;;;;;;51.33;15.83;;;12.30;99.90;;;;;;5069679;27;20496;-61
2022/11/10 01:09:24;;;;;;;61.43;15.50;;;12.20;99.90;;;;;;5067860;28;21085;-61
2022/11/10 01:11:51;;;;;;;48.93;15.90;;;12.30;99.90;;;;;;5068736;28;20486;-60
2022/11/10 01:14:17;;;;;;;59.43;17.67;;;12.30;99.90;;;;;;5064987;28;20842;-61
2022/11/10 01:16:44;;;;;;;38.30;13.20;;;12.30;99.90;;;;;;5060127;28;20493;-61
2022/11/10 01:19:12;;;;;;;46.33;14.60;;;12.30;99.90;;;;;;5076907;28;20490;-61
2022/11/10 01:21:39;;;;;;;57.77;18.40;;;;;;;;;;5068167;28;20962;-61
2022/11/10 01:24:07;;;;;;;53.10;14.67;;;;;;;;;;5069476;28;20685;-60
2022/11/10 01:26:33;;;;;;;60.73;18.33;;;12.50;99.90;;;;;;5066366;28;20481;-61
2022/11/10 01:29:00;;;;;;;39.23;12.90;;;12.40;99.90;;;;;;5077158;28;20478;-61
2022/11/10 01:31:27;;;;;;;88.20;21.47;;;;;;;;;;5061802;28;20486;-61
2022/11/10 01:33:54;;;;;;;29.30;10.50;;;12.40;99.90;;;;;;5083513;28;20483;-61
2022/11/10 01:36:22;;;;;;;24.70;12.90;;;12.30;99.90;;;;;;5071518;28;20505;-60
2022/11/10 01:38:48;;;;;;;26.73;11.00;;;12.20;99.90;;;;;;5063993;28;20878;-61
2022/11/10 01:41:15;;;;;;;25.73;11.20;;;12.20;99.90;;;;;;5074888;28;20491;-61
2022/11/10 01:43:42;;;;;;;26.53;11.53;;;;;;;;;;5063751;28;20516;-60
2022/11/10 01:46:10;;;;;;;45.97;10.60;;;12.20;99.90;;;;;;5076921;28;20490;-60
2022/11/10 01:48:39;;;;;;;41.97;13.80;;;;;;;;;;5069512;28;20705;-61
2022/11/10 01:51:11;;;;;;;33.43;13.57;;;12.20;99.90;;;;;;5054209;28;20478;-61
2022/11/10 01:53:44;;;;;;;58.17;16.83;;;12.30;99.90;;;;;;5074335;28;20635;-61
2022/11/10 01:56:14;;;;;;;39.90;12.27;;;12.20;99.90;;;;;;5058823;28;20645;-60
2022/11/10 01:58:47;;;;;;;65.93;14.83;;;12.20;99.90;;;;;;5073097;28;20893;-60
2022/11/10 02:01:14;;;;;;;82.50;14.33;;;;;;;;;;5072473;28;20479;-61
2022/11/10 02:03:45;;;;;;;77.97;16.83;;;12.10;99.90;;;;;;5069094;28;20494;-60
2022/11/10 02:06:13;;;;;;;58.73;12.20;;;12.00;99.90;;;;;;5071424;28;20930;-61
2022/11/10 02:08:42;;;;;;;51.17;12.30;;;12.00;99.90;;;;;;5070713;28;20496;-61
2022/11/10 02:11:09;;;;;;;52.70;14.90;;;;;;;;;;5081270;28;20482;-60
2022/11/10 02:13:37;;;;;;;75.90;15.60;;;11.90;99.90;;;;;;5063148;28;20897;-60
2022/11/10 02:16:04;;;;;;;50.80;12.00;;;;;;;;;;5081475;28;21070;-60
2022/11/10 02:18:31;;;;;;;71.40;17.50;;;;;;;;;;5073385;28;21004;-59
2022/11/10 02:20:59;;;;;;;35.27;11.13;;;11.90;99.90;;;;;;5077940;28;20482;-60
2022/11/10 02:23:45;;;;;;;52.17;14.33;;;11.90;99.90;;;;;;5071105;28;20882;-60
2022/11/10 02:26:13;;;;;;;36.27;11.77;;;11.90;99.90;;;;;;5079702;28;20547;-60
2022/11/10 02:28:39;;;;;;;78.97;16.53;;;11.80;99.90;;;;;;5077879;28;20485;-60
2022/11/10 02:31:08;;;;;;;61.03;14.63;;;;;;;;;;5079367;28;20474;-60
2022/11/10 02:33:35;;;;;;;68.30;15.50;;;11.60;99.90;;;;;;5077188;28;20831;-60
2022/11/10 02:36:04;;;;;;;35.77;13.90;;;11.60;99.90;;;;;;5076612;28;20982;-60
2022/11/10 02:38:30;;;;;;;41.33;15.50;;;11.60;99.90;;;;;;5075249;28;20482;-60
2022/11/10 02:40:57;;;;;;;28.03;10.20;;;;;;;;;;5075781;28;20497;-61
2022/11/10 02:43:24;;;;;;;46.07;13.93;;;11.50;99.90;;;;;;5069204;28;20990;-60
2022/11/10 02:45:51;;;;;;;31.43;10.67;;;11.50;99.90;;;;;;5076219;28;21079;-61
2022/11/10 02:48:19;;;;;;;32.00;10.90;;;11.40;99.90;;;;;;5072851;28;20474;-60
2022/11/10 02:50:46;;;;;;;30.73;11.40;;;11.50;99.90;;;;;;5072814;28;20478;-61
2022/11/10 02:53:14;;;;;;;39.60;11.90;;;11.50;99.90;;;;;;5070228;28;20462;-61
2022/11/10 02:55:40;;;;;;;43.80;13.53;;;11.50;99.90;;;;;;5070686;28;20492;-60
2022/11/10 02:58:07;;;;;;;36.13;12.87;;;11.50;99.90;;;;;;5079777;28;20801;-60
2022/11/10 03:00:34;;;;;;;43.83;15.77;;;14.30;99.90;;;;;;5072889;28;20482;-61
2022/11/10 03:03:02;;;;;;;39.03;12.00;;;11.30;99.90;;;;;;5072737;28;20478;-61
2022/11/10 03:05:29;;;;;;;76.43;17.43;;;11.40;99.90;;;;;;5060580;28;20477;-61
2022/11/10 03:07:57;;;;;;;48.33;11.90;;;;;;;;;;5086793;28;20489;-61
2022/11/10 03:10:26;;;;;;;72.80;17.87;;;;;;;;;;5071891;28;20485;-60
2022/11/10 03:12:54;;;;;;;90.70;17.77;;;11.30;99.90;;;;;;5065418;28;20490;-60
2022/11/10 03:15:21;;;;;;;39.30;12.23;;;11.30;99.90;;;;;;5082620;28;20891;-60
2022/11/10 03:17:47;;;;;;;24.23;9.57;;;11.40;99.90;;;;;;5075600;28;21066;-60
2022/11/10 03:20:14;;;;;;;35.20;11.60;;;11.30;99.90;;;;;;5074648;28;20561;-60
2022/11/10 03:22:41;;;;;;;46.47;15.23;;;11.30;99.90;;;;;;5069255;28;20486;-61
2022/11/10 03:25:09;;;;;;;38.03;11.57;;;11.30;99.90;;;;;;5072757;28;20517;-60
2022/11/10 03:27:37;;;;;;;45.87;15.03;;;11.30;99.90;;;;;;5070350;28;20481;-61
2022/11/10 03:30:04;;;;;;;25.90;11.10;;;11.20;99.90;;;;;;5073120;28;20698;-61
2022/11/10 03:32:31;;;;;;;64.77;21.10;;;11.20;99.90;;;;;;5083818;28;20751;-60
2022/11/10 03:34:58;;;;;;;29.90;11.40;;;11.20;99.90;;;;;;5077584;28;20485;-60
2022/11/10 03:37:25;;;;;;;51.00;14.70;;;11.10;99.90;;;;;;5075273;28;20493;-60
2022/11/10 03:39:51;;;;;;;54.10;13.07;;;11.10;99.90;;;;;;5064722;28;21369;-61
2022/11/10 03:42:18;;;;;;;35.90;12.50;;;11.10;99.90;;;;;;5081082;28;20481;-60
2022/11/10 03:44:47;;;;;;;46.77;13.07;;;11.10;99.90;;;;;;5083987;28;20470;-61
2022/11/10 03:47:14;;;;;;;65.17;13.37;;;12.10;99.90;;;;;;5056089;28;20855;-60
2022/11/10 03:49:41;;;;;;;47.67;14.93;;;;;;;;;;5077023;28;20482;-61
2022/11/10 03:52:08;;;;;;;32.83;11.07;;;11.20;99.90;;;;;;5072128;28;20506;-60
2022/11/10 03:54:34;;;;;;;80.17;18.20;;;11.30;99.90;;;;;;5067658;28;20791;-60
2022/11/10 03:57:01;;;;;;;85.50;15.50;;;;;;;;;;5072679;28;20489;-59
2022/11/10 03:59:28;;;;;;;36.03;13.63;;;;;;;;;;5075208;28;20485;-60
2022/11/10 04:01:57;;;;;;;36.03;10.40;;;11.30;99.90;;;;;;5084437;28;20482;-60
2022/11/10 04:09:53;;;;;;;29.63;11.50;;;;;;;;;;5071799;28;20565;-60
2022/11/10 04:18:19;;;;;;;45.43;12.07;;;11.10;99.90;;;;;;5060429;28;20597;-60
2022/11/10 04:20:46;;;;;;;27.17;10.00;;;11.00;99.90;;;;;;5064170;28;20934;-60
2022/11/10 04:28:45;;;;;;;29.33;10.50;;;11.10;99.90;;;;;;5071572;28;20888;-60
2022/11/10 04:31:12;;;;;;;31.87;8.07;;;;;;;;;;5079669;28;20791;-60
2022/11/10 04:33:41;;;;;;;45.90;13.80;;;11.10;99.90;;;;;;5068084;28;20492;-60
2022/11/10 04:36:09;;;;;;;98.27;13.43;;;;;;;;;;5079417;28;21655;-60
2022/11/10 04:38:36;;;;;;;124.03;19.43;;;;;;;;;;5049246;28;20494;-60
2022/11/10 04:41:03;;;;;;;74.63;15.63;;;;;;;;;;5074391;28;20475;-60
2022/11/10 04:43:30;;;;;;;127.70;21.60;;;14.80;99.90;;;;;;5068000;28;20487;-60
2022/11/10 04:45:58;;;;;;;51.43;12.10;;;11.00;99.90;;;;;;5073303;28;20966;-61
2022/11/10 04:48:26;;;;;;;82.17;16.10;;;;;;;;;;5077722;28;20519;-60
2022/11/10 04:50:55;;;;;;;45.13;11.50;;;11.10;99.90;;;;;;5073283;28;20482;-60
2022/11/10 04:53:24;;;;;;;79.57;14.37;;;;;;;;;;5071296;28;20688;-61
2022/11/10 04:55:51;;;;;;;44.40;10.63;;;;;;;;;;5065259;28;20839;-60
2022/11/10 04:58:18;;;;;;;70.20;13.53;;;;;;;;;;5090373;28;20475;-60
2022/11/10 05:00:45;;;;;;;66.17;13.67;;;;;;;;;;5069435;28;20489;-61
2022/11/10 05:03:13;;;;;;;64.97;13.37;;;;;;;;;;5072770;28;20498;-60
2022/11/10 05:05:40;;;;;;;66.43;12.43;;;11.10;99.90;;;;;;5072195;28;20473;-60
2022/11/10 05:08:09;;;;;;;43.60;11.63;;;10.90;99.90;;;;;;5061595;28;20474;-60
2022/11/10 05:10:37;;;;;;;40.00;15.93;;;10.90;99.90;;;;;;5073102;28;21037;-60
2022/11/10 05:13:05;;;;;;;32.50;10.40;;;10.90;99.90;;;;;;5069265;28;20482;-60
2022/11/10 05:15:33;;;;;;;35.63;15.60;;;10.90;99.90;;;;;;5072833;28;20483;-60
2022/11/10 05:18:00;;;;;;;50.03;13.70;;;;;;;;;;5069998;28;20474;-60
2022/11/10 05:20:27;;;;;;;46.93;13.20;;;10.80;99.90;;;;;;5064580;28;20486;-59
2022/11/10 05:25:43;;;;;;;33.33;13.00;;;10.90;99.90;;;;;;5066677;28;20517;-60
2022/11/10 05:28:11;;;;;;;29.77;10.00;;;;;;;;;;5073199;28;20548;-60
2022/11/10 05:30:39;;;;;;;52.03;15.10;;;10.80;99.90;;;;;;5082016;28;20488;-60
2022/11/10 05:33:06;;;;;;;34.77;11.47;;;10.70;99.90;;;;;;5068607;28;20489;-60
2022/11/10 05:35:33;;;;;;;57.20;16.20;;;10.70;99.90;;;;;;5070796;28;20488;-60
2022/11/10 05:38:00;;;;;;;44.83;12.97;;;10.60;99.90;;;;;;5077249;28;20986;-60
2022/11/10 05:40:27;;;;;;;65.37;20.00;;;10.50;99.90;;;;;;5073522;28;20550;-60
2022/11/10 05:42:55;;;;;;;46.27;14.50;;;10.50;99.90;;;;;;5071707;28;20575;-60
2022/11/10 05:45:24;;;;;;;34.27;12.03;;;10.50;99.90;;;;;;5076486;28;20485;-60
2022/11/10 05:47:51;;;;;;;36.90;10.10;;;;;;;;;;5074842;28;20482;-61
2022/11/10 05:50:19;;;;;;;49.33;14.17;;;;;;;;;;5067488;28;20472;-61
2022/11/10 05:52:48;;;;;;;113.27;20.57;;;10.60;99.90;;;;;;5071234;28;21254;-60
2022/11/10 05:55:16;;;;;;;73.50;13.40;;;;;;;;;;5075458;28;20479;-60
2022/11/10 05:57:43;;;;;;;112.33;16.40;;;;;;;;;;5068949;28;20486;-61
2022/11/10 06:00:12;;;;;;;118.90;13.97;;;;;;;;;;5073929;28;21101;-60
2022/11/10 06:02:40;;;;;;;206.33;25.00;;;;;;;;;;5062331;28;20538;-61
2022/11/10 06:05:07;;;;;;;63.23;11.77;;;;;;;;;;5046681;28;20816;-61
2022/11/10 06:07:35;;;;;;;134.87;20.70;;;;;;;;;;5060737;28;20568;-61
2022/11/10 06:10:02;;;;;;;91.40;14.87;;;;;;;;;;5084084;28;20466;-61
2022/11/10 06:12:30;;;;;;;133.60;23.03;;;;;;;;;;5071336;28;21051;-61
2022/11/10 06:14:57;;;;;;;50.00;11.90;;;;;;;;;;5071873;28;20784;-61
2022/11/10 06:17:26;;;;;;;82.77;17.27;;;10.50;99.90;;;;;;5069054;28;20483;-61
2022/11/10 06:19:53;;;;;;;61.07;12.37;;;;;;;;;;5071530;28;21192;-60
2022/11/10 06:22:20;;;;;;;47.13;12.93;;;;;;;;;;5071749;28;20478;-60
2022/11/10 06:24:47;;;;;;;54.70;12.10;;;10.60;99.90;;;;;;5062678;28;21003;-61
2022/11/10 06:27:14;;;;;;;56.37;14.17;;;10.60;99.90;;;;;;5082746;28;20531;-61
2022/11/10 06:29:40;;;;;;;50.83;13.73;;;10.50;99.90;;;;;;5083280;28;20494;-61
2022/11/10 06:32:07;;;;;;;46.97;11.90;;;10.50;99.90;;;;;;5074443;28;20490;-60
2022/11/10 06:34:35;;;;;;;56.43;17.87;;;10.50;99.90;;;;;;5069655;28;20799;-61
2022/11/10 06:37:02;;;;;;;31.33;11.83;;;10.50;99.90;;;;;;5073592;28;20494;-61
2022/11/10 06:39:28;;;;;;;40.73;15.40;;;10.50;99.90;;;;;;5069584;28;20486;-61
2022/11/10 06:41:55;;;;;;;34.17;10.23;;;10.60;99.90;;;;;;5078691;28;20807;-61
2022/11/10 06:44:22;;;;;;;39.60;11.47;;;10.70;99.90;;;;;;5071449;28;20534;-61
2022/11/10 06:46:48;;;;;;;29.67;14.57;;;12.70;99.90;;;;;;5074371;28;20478;-61
2022/11/10 06:49:16;;;;;;;33.30;12.20;;;10.80;99.90;;;;;;5070364;28;21057;-61
2022/11/10 06:51:45;;;;;;;43.77;12.00;;;10.90;99.90;;;;;;5066922;28;20478;-60
2022/11/10 06:54:11;;;;;;;27.87;11.00;;;10.80;99.90;;;;;;5065448;28;20479;-61
2022/11/10 06:56:38;;;;;;;47.93;14.60;;;10.90;99.90;;;;;;5073093;28;20483;-61
2022/11/10 06:59:05;;;;;;;35.63;11.43;;;10.90;99.90;;;;;;5066873;28;20897;-60
2022/11/10 07:01:31;;;;;;;53.93;16.67;;;11.00;99.90;;;;;;5072842;28;20474;-60
2022/11/10 07:03:58;;;;;;;32.40;11.63;;;11.10;99.90;;;;;;5054303;28;20524;-61
2022/11/10 07:06:25;;;;;;;42.57;11.90;;;11.20;99.90;;;;;;5083273;28;20492;-60
2022/11/10 07:08:53;;;;;;;56.80;12.60;;;11.20;99.90;;;;;;5068767;28;20791;-61
2022/11/10 07:11:20;;;;;;;51.57;11.33;;;;;;;;;;5076844;28;20543;-60
2022/11/10 07:13:47;;;;;;;49.40;13.30;;;;;;;;;;5077067;28;20489;-61
2022/11/10 07:16:15;;;;;;;60.03;13.73;;;10.90;99.90;;;;;;5078296;28;20486;-61
2022/11/10 07:18:42;;;;;;;72.80;14.73;;;;;;;;;;5068231;28;20477;-61
2022/11/10 07:21:09;;;;;;;73.23;12.20;;;10.90;99.90;;;;;;5073449;28;20469;-61
2022/11/10 07:23:36;;;;;;;86.40;18.03;;;;;;;;;;5072829;28;20489;-61
2022/11/10 07:26:04;;;;;;;88.07;15.43;;;10.90;99.90;;;;;;5072406;28;20971;-61
2022/11/10 07:28:31;;;;;;;74.67;17.40;;;;;;;;;;5067390;28;20486;-61
2022/11/10 07:31:01;;;;;;;36.17;10.23;;;11.00;99.90;;;;;;5066985;28;20830;-60
2022/11/10 07:33:28;;;;;;;84.00;18.03;;;;;;;;;;5069791;28;20486;-61
2022/11/10 07:35:57;;;;;;;56.20;15.53;;;10.90;99.90;;;;;;5073721;28;20485;-60
2022/11/10 07:38:24;;;;;;;50.93;15.10;;;10.80;99.90;;;;;;5073325;28;21158;-61
2022/11/10 07:40:52;;;;;;;47.30;13.20;;;10.70;99.90;;;;;;5075050;28;20483;-61
2022/11/10 07:43:20;;;;;;;41.27;13.80;;;;;;;;;;5060950;28;20518;-62
2022/11/10 07:45:49;;;;;;;39.20;13.37;;;10.20;99.90;;;;;;5068332;28;20693;-62
2022/11/10 07:48:16;;;;;;;42.70;13.67;;;10.60;99.90;;;;;;5064240;28;20532;-62
2022/11/10 07:50:43;;;;;;;46.47;12.80;;;10.40;99.90;;;;;;5070636;28;20489;-62
2022/11/10 07:53:12;;;;;;;45.83;14.97;;;10.30;99.90;;;;;;5077289;28;20478;-61
2022/11/10 07:55:41;;;;;;;41.03;15.90;;;8.40;99.90;;;;;;5062116;28;20493;-62
2022/11/10 07:58:09;;;;;;;30.20;12.70;;;10.30;99.90;;;;;;5067381;28;20461;-62
2022/11/10 08:00:38;;;;;;;48.13;18.40;;;10.30;99.90;;;;;;5076537;28;20486;-62
2022/11/10 08:03:05;;;;;;;39.13;13.27;;;;;;;;;;5077003;28;21308;-61
2022/11/10 08:05:33;;;;;;;40.63;16.60;;;10.30;99.90;;;;;;5068944;28;20483;-61
2022/11/10 08:07:59;;;;;;;48.03;14.37;;;10.30;99.90;;;;;;5072696;28;20991;-62
2022/11/10 08:10:26;;;;;;;40.60;15.20;;;10.30;99.90;;;;;;5070399;28;20557;-61
2022/11/10 08:12:55;;;;;;;39.43;13.40;;;10.10;99.90;;;;;;5067471;28;20486;-61
2022/11/10 08:15:22;;;;;;;39.80;13.97;;;9.90;99.90;;;;;;5050812;28;20956;-61
2022/11/10 08:17:50;;;;;;;44.97;11.13;;;9.90;99.90;;;;;;5073267;28;20488;-61
2022/11/10 08:20:17;;;;;;;75.17;15.57;;;;;;;;;;5068578;28;20479;-60
2022/11/10 08:22:44;;;;;;;125.90;19.20;;;;;;;;;;5058869;28;20850;-61
2022/11/10 08:25:12;;;;;;;70.03;10.30;;;;;;;;;;5071041;28;20821;-60
2022/11/10 08:27:39;;;;;;;165.47;21.20;;;;;;;;;;5065890;28;20493;-61
2022/11/10 08:30:07;;;;;;;175.60;18.20;;;;;;;;;;5069807;28;20477;-61
2022/11/10 08:32:34;;;;;;;153.03;24.03;;;;;;;;;;5074340;28;20957;-61
2022/11/10 08:35:02;;;;;;;107.33;15.00;;;;;;;;;;5070585;28;20946;-61
2022/11/10 08:37:29;;;;;;;173.27;20.47;;;;;;;;;;5059094;28;20489;-61
2022/11/10 08:39:57;;;;;;;82.23;14.93;;;;;;;;;;5078801;28;20486;-61
2022/11/10 08:42:24;;;;;;;84.70;17.33;;;;;;;;;;5073213;28;20569;-61
2022/11/10 08:44:51;;;;;;;63.40;14.67;;;;;;;;;;5072081;28;20485;-61
2022/11/10 08:47:18;;;;;;;53.77;13.40;;;;;;;;;;5074865;28;20825;-61
2022/11/10 08:49:45;;;;;;;50.03;11.63;;;;;;;;;;5071828;28;20524;-61
2022/11/10 08:52:13;;;;;;;69.03;12.33;;;;;;;;;;5078639;28;21125;-61
2022/11/10 08:54:40;;;;;;;57.97;13.57;;;9.70;99.90;;;;;;5069570;28;20479;-61
2022/11/10 08:57:07;;;;;;;46.07;11.70;;;9.70;99.90;;;;;;5072651;28;20482;-61
2022/11/10 08:59:34;;;;;;;58.50;13.73;;;;;;;;;;5073221;28;20483;-61
2022/11/10 09:02:01;;;;;;;44.43;10.60;;;;;;;;;;5074724;28;20708;-60
2022/11/10 09:04:28;;;;;;;52.83;14.83;;;;;;;;;;5066399;28;20487;-61
2022/11/10 09:06:56;;;;;;;40.33;10.00;;;;;;;;;;5063307;28;20474;-62
2022/11/10 09:09:25;;;;;;;47.73;9.93;;;10.00;99.90;;;;;;5063684;28;20480;-61
2022/11/10 09:11:52;;;;;;;45.03;9.97;;;10.00;99.90;;;;;;5067544;28;20532;-61
2022/11/10 09:14:19;;;;;;;43.50;10.73;;;9.90;99.90;;;;;;5067665;28;20489;-62
2022/11/10 09:16:46;;;;;;;34.70;8.50;;;10.00;99.90;;;;;;5075180;28;20570;-61
2022/11/10 09:19:13;;;;;;;52.57;11.03;;;;;;;;;;5069045;28;21150;-61
2022/11/10 09:21:39;;;;;;;63.90;13.17;;;10.20;99.90;;;;;;5067361;28;20482;-61
2022/11/10 09:24:07;;;;;;;45.73;10.00;;;10.30;99.90;;;;;;5066988;28;21009;-61
2022/11/10 09:26:35;;;;;;;54.23;13.20;;;10.40;99.90;;;;;;5068836;28;20479;-61
2022/11/10 09:29:02;;;;;;;43.20;9.50;;;10.50;99.90;;;;;;5067708;28;20470;-60
2022/11/10 09:31:29;;;;;;;74.43;14.70;;;;;;;;;;5066632;28;20478;-61
2022/11/10 09:33:58;;;;;;;39.87;10.03;;;;;;;;;;5071653;28;20674;-61
2022/11/10 09:36:24;;;;;;;61.60;14.07;;;10.40;99.90;;;;;;5072748;28;21815;-60
2022/11/10 09:38:51;;;;;;;26.73;7.90;;;10.40;99.90;;;;;;5073645;28;20478;-61
2022/11/10 09:41:18;;;;;;;43.77;10.47;;;10.30;99.90;;;;;;5073402;28;20886;-61
2022/11/10 09:44:00;;;;;;;39.90;10.63;;;10.40;99.90;;;;;;5062738;28;20478;-61
2022/11/10 09:46:30;;;;;;;55.50;10.70;;;10.30;99.90;;;;;;5063467;28;20581;-61
2022/11/10 09:49:03;;;;;;;54.37;11.63;;;10.30;99.90;;;;;;5067768;28;20831;-62
2022/11/10 09:51:32;;;;;;;72.97;15.83;;;;;;;;;;5065890;28;20556;-61
2022/11/10 09:54:02;;;;;;;35.63;9.87;;;10.20;99.90;;;;;;5064300;28;20565;-61
2022/11/10 09:56:32;;;;;;;55.83;13.20;;;10.20;99.90;;;;;;5068298;28;21123;-61
2022/11/10 09:59:03;;;;;;;31.37;8.60;;;10.20;99.90;;;;;;5073709;28;20486;-62
2022/11/10 10:01:34;;;;;;;50.57;11.67;;;;;;;;;;5062907;28;20477;-61
2022/11/10 10:04:13;;;;;;;48.30;10.40;;;10.30;99.90;;;;;;5069139;28;20489;-61
2022/11/10 10:06:45;;;;;;;55.27;10.90;;;;;;;;;;5070397;28;21331;-60
2022/11/10 10:09:23;;;;;;;41.77;10.37;;;;;;;;;;5078526;28;20477;-60
2022/11/10 10:11:54;;;;;;;50.70;9.37;;;;;;;;;;5067647;28;20490;-60
2022/11/10 10:14:40;;;;;;;61.93;10.90;;;10.60;99.90;;;;;;5063171;28;20474;-60
2022/11/10 10:17:19;;;;;;;39.83;10.47;;;10.50;99.90;;;;;;5064586;28;20461;-60
2022/11/10 10:19:53;;;;;;;25.43;7.50;;;10.50;99.90;;;;;;5064071;28;20483;-61
2022/11/10 10:22:35;;;;;;;32.17;8.83;;;10.40;99.90;;;;;;5068810;28;20481;-60
2022/11/10 10:25:10;;;;;;;49.30;10.57;;;10.30;99.90;;;;;;5072721;28;20466;-61
2022/11/10 10:27:39;;;;;;;54.47;14.80;;;;;;;;;;5072829;28;20474;-60
2022/11/10 10:30:13;;;;;;;39.13;9.67;;;10.10;99.90;;;;;;5065239;28;20484;-60
2022/11/10 10:32:40;;;;;;;68.40;17.43;;;10.10;99.90;;;;;;5072450;28;20566;-61
2022/11/10 10:35:07;;;;;;;40.90;9.83;;;;;;;;;;5064087;28;20892;-60
2022/11/10 10:37:42;;;;;;;41.90;11.40;;;10.20;99.90;;;;;;5061879;28;20506;-60
2022/11/10 10:40:13;;;;;;;29.17;10.33;;;10.10;99.90;;;;;;5063882;28;20477;-60
2022/11/10 10:42:40;;;;;;;58.90;15.40;;;10.20;99.90;;;;;;5066691;28;20863;-60
2022/11/10 10:45:17;;;;;;;26.33;9.43;;;10.20;99.90;;;;;;5071524;28;20497;-61
2022/11/10 10:47:44;;;;;;;42.37;11.30;;;10.30;99.90;;;;;;5075542;28;21048;-60
2022/11/10 10:50:27;;;;;;;30.13;7.93;;;10.60;99.90;;;;;;5078313;28;20487;-60
2022/11/10 10:53:11;;;;;;;45.83;10.73;;;10.80;99.90;;;;;;5059645;28;20931;-60
2022/11/10 10:55:38;;;;;;;50.83;11.40;;;10.90;99.90;;;;;;5066718;28;20989;-60
2022/11/10 10:58:19;;;;;;;42.50;10.47;;;11.00;99.90;;;;;;5075806;28;20474;-60
2022/11/10 11:00:48;;;;;;;34.40;8.93;;;11.00;99.90;;;;;;5066619;28;20486;-60
2022/11/10 11:03:25;;;;;;;44.87;11.93;;;10.90;99.90;;;;;;5061012;28;20486;-60
2022/11/10 11:06:08;;;;;;;32.10;7.97;;;11.00;99.90;;;;;;5070619;28;20686;-60
2022/11/10 11:08:35;;;;;;;67.23;13.50;;;11.10;99.90;;;;;;5060537;28;20689;-60
2022/11/10 11:11:11;;;;;;;39.77;9.60;;;11.00;99.90;;;;;;5068274;28;20871;-61
2022/11/10 11:13:38;;;;;;;64.57;13.30;;;;;;;;;;5067193;28;20474;-60
2022/11/10 11:16:11;;;;;;;37.67;10.07;;;11.20;99.90;;;;;;5079726;28;20481;-61
2022/11/10 11:18:39;;;;;;;68.33;14.43;;;11.10;99.90;;;;;;5077105;28;20480;-60
2022/11/10 11:21:14;;;;;;;44.20;9.50;;;11.30;99.90;;;;;;5070559;28;20482;-60
2022/11/10 11:23:55;;;;;;;39.23;9.50;;;11.30;99.90;;;;;;5059583;28;20935;-60
2022/11/10 11:26:24;;;;;;;45.97;12.27;;;;;;;;;;5074717;28;20802;-60
2022/11/10 11:29:05;;;;;;;36.60;8.47;;;11.30;99.90;;;;;;5074280;28;21047;-61
2022/11/10 11:31:37;;;;;;;82.83;17.07;;;;;;;;;;5068275;28;20493;-61
2022/11/10 11:34:09;;;;;;;37.90;9.53;;;11.30;99.90;;;;;;5059246;28;20524;-60
2022/11/10 11:36:47;;;;;;;78.63;16.93;;;11.30;99.90;;;;;;5076658;28;20489;-60
2022/11/10 11:39:29;;;;;;;29.33;9.87;;;11.30;99.90;;;;;;5075462;28;20489;-61
2022/11/10 11:42:06;;;;;;;54.30;12.83;;;11.20;99.90;;;;;;5059906;28;21101;-61
2022/11/10 11:44:51;;;;;;;75.73;16.13;;;11.10;99.90;;;;;;5060259;28;20742;-60
2022/11/10 11:47:33;;;;;;;34.80;10.17;;;11.10;99.90;;;;;;5069058;28;21040;-61
2022/11/10 11:50:08;;;;;;;38.00;10.10;;;;;;;;;;5068367;28;21176;-61
2022/11/10 11:52:40;;;;;;;66.70;20.43;;;11.10;99.90;;;;;;5072008;28;20951;-61
2022/11/10 11:55:17;;;;;;;36.57;9.70;;;;;;;;;;5069690;28;20531;-61
2022/11/10 11:57:57;;;;;;;35.63;11.63;;;11.20;99.90;;;;;;5072141;28;20478;-61
2022/11/10 12:00:24;;;;;;;58.90;12.37;;;11.20;99.90;;;;;;5072196;28;20486;-60
2022/11/10 12:03:23;;;;;;;43.30;12.40;;;11.30;99.90;;;;;;5064313;28;20490;-61
2022/11/10 12:05:57;;;;;;;40.03;10.17;;;;;;;;;;5067149;28;20502;-61
2022/11/10 12:08:31;;;;;;;49.10;13.30;;;;;;;;;;5071328;28;20486;-61
2022/11/10 12:11:08;;;;;;;59.73;9.33;;;11.50;99.90;;;;;;5074190;28;20835;-61
2022/11/10 12:13:37;;;;;;;55.97;16.13;;;;;;;;;;5065528;28;20470;-61
2022/11/10 12:16:08;;;;;;;34.83;10.07;;;;;;;;;;5072396;28;20489;-61
2022/11/10 12:18:40;;;;;;;58.27;15.50;;;11.70;99.90;;;;;;5067808;28;20481;-61
2022/11/10 12:21:11;;;;;;;33.60;10.23;;;;;;;;;;5072318;28;21158;-61
2022/11/10 12:23:54;;;;;;;33.27;10.30;;;11.70;99.90;;;;;;5046515;28;20475;-61
2022/11/10 12:26:31;;;;;;;47.40;11.67;;;11.80;99.90;;;;;;5081431;28;20966;-62
2022/11/10 12:29:03;;;;;;;57.07;10.50;;;;;;;;;;5071338;28;20486;-62
2022/11/10 12:31:32;;;;;;;61.70;13.20;;;;;;;;;;5066813;28;20561;-61
2022/11/10 12:34:02;;;;;;;27.47;9.87;;;;;;;;;;5071910;28;20682;-61
2022/11/10 12:36:31;;;;;;;54.53;16.00;;;;;;;;;;5076247;28;20482;-61
2022/11/10 12:39:01;;;;;;;32.60;11.57;;;11.40;99.90;;;;;;5068155;28;21081;-61
2022/11/10 12:41:32;;;;;;;50.07;14.80;;;11.40;99.90;;;;;;5070452;28;21018;-60
2022/11/10 12:44:05;;;;;;;44.67;12.03;;;;;;;;;;5055865;28;20597;-60
2022/11/10 12:46:32;;;;;;;50.10;12.60;;;11.70;99.90;;;;;;5071020;28;20556;-60
2022/11/10 12:49:05;;;;;;;47.60;10.90;;;;;;;;;;5070062;28;20479;-60
2022/11/10 12:51:43;;;;;;;53.47;15.57;;;12.00;99.90;;;;;;5063658;28;20738;-60
2022/11/10 12:54:14;;;;;;;27.40;8.97;;;12.10;99.90;;;;;;5080883;28;20919;-61
2022/11/10 12:56:48;;;;;;;59.30;13.40;;;12.00;99.90;;;;;;5067116;28;20493;-60
2022/11/10 12:59:25;;;;;;;33.93;8.83;;;;;;;;;;5070775;28;20489;-61
2022/11/10 13:01:57;;;;;;;25.43;9.17;;;;;;;;;;5067408;28;20496;-61
2022/11/10 13:04:25;;;;;;;51.77;13.17;;;12.00;99.90;;;;;;5053160;28;20505;-61
2022/11/10 13:06:55;;;;;;;21.87;10.00;;;12.20;99.90;;;;;;5066090;28;20950;-60
2022/11/10 13:09:26;;;;;;;31.33;10.63;;;;;;;;;;5065500;28;20466;-60
2022/11/10 13:12:20;;;;;;;37.00;8.80;;;;;;;;;;5065219;28;20869;-60
2022/11/10 13:14:47;;;;;;;29.33;8.87;;;12.30;99.90;;;;;;5019444;28;20918;-60
2022/11/10 13:17:54;;;;;;;37.77;9.20;;;12.40;99.90;;;;;;5051992;28;21006;-61
2022/11/10 13:20:48;;;;;;;36.90;9.47;;;12.60;99.90;;;;;;4998864;28;20647;-61
2022/11/10 13:23:22;;;;;;;23.53;9.23;;;12.70;99.90;;;;;;5061446;28;20482;-60
2022/11/10 13:25:54;;;;;;;21.47;7.33;;;;;;;;;;5069242;28;20473;-60
2022/11/10 13:28:55;;;;;;;23.77;9.80;;;12.60;99.90;;;;;;5069378;28;20465;-60
2022/11/10 13:31:39;;;;;;;23.20;9.60;;;;;;;;;;5062373;28;24850;-60
2022/11/10 13:34:10;;;;;;;39.07;9.47;;;12.50;99.90;;;;;;5053965;28;20870;-61
2022/11/10 13:36:40;;;;;;;33.70;11.50;;;12.50;99.90;;;;;;5075209;28;20473;-61
2022/11/10 13:39:24;;;;;;;31.77;8.80;;;;;;;;;;5069012;28;20482;-60